createdAt,value
2023-03-06T00:00:57.052Z,2.80
2023-03-06T00:03:24.456Z,2.80
2023-03-06T00:05:52.091Z,2.70
2023-03-06T00:08:18.736Z,2.80
2023-03-06T00:10:45.844Z,2.80
2023-03-06T00:13:15.593Z,2.80
2023-03-06T00:15:42.877Z,2.80
2023-03-06T00:18:09.483Z,2.80
2023-03-06T00:20:37.156Z,2.80
2023-03-06T00:23:03.820Z,2.80
2023-03-06T00:25:31.250Z,2.80
2023-03-06T00:27:57.855Z,2.80
2023-03-06T00:30:25.433Z,2.80
2023-03-06T00:32:52.910Z,2.70
2023-03-06T00:35:20.084Z,2.70
2023-03-06T00:37:47.470Z,2.70
2023-03-06T00:40:17.582Z,2.70
2023-03-06T00:42:45.022Z,2.70
2023-03-06T00:45:13.225Z,2.60
2023-03-06T00:47:40.325Z,2.70
2023-03-06T00:50:09.135Z,2.60
2023-03-06T00:52:36.160Z,2.60
2023-03-06T00:55:03.356Z,2.60
2023-03-06T00:57:30.524Z,2.50
2023-03-06T00:59:58.059Z,2.60
2023-03-06T01:02:25.528Z,2.50
2023-03-06T01:04:54.341Z,2.50
2023-03-06T01:07:21.647Z,2.50
2023-03-06T01:09:48.314Z,2.50
2023-03-06T01:12:15.848Z,2.50
2023-03-06T01:14:42.551Z,2.50
2023-03-06T01:17:10.254Z,2.50
2023-03-06T01:19:36.925Z,2.50
2023-03-06T01:22:04.442Z,2.50
2023-03-06T01:24:31.635Z,2.50
2023-03-06T01:26:58.972Z,2.50
2023-03-06T01:29:26.326Z,2.50
2023-03-06T01:31:53.848Z,2.50
2023-03-06T01:34:21.181Z,2.50
2023-03-06T01:36:48.758Z,2.50
2023-03-06T01:39:15.688Z,2.50
2023-03-06T01:41:42.998Z,2.50
2023-03-06T01:44:13.467Z,2.50
2023-03-06T01:46:43.241Z,2.50
2023-03-06T01:49:18.822Z,2.50
2023-03-06T01:52:14.496Z,2.50
2023-03-06T01:54:55.526Z,2.50
2023-03-06T01:57:37.828Z,2.50
2023-03-06T02:00:10.032Z,2.40
2023-03-06T02:02:47.394Z,2.40
2023-03-06T02:05:14.861Z,2.40
2023-03-06T02:07:44.096Z,2.40
2023-03-06T02:10:14.694Z,2.30
2023-03-06T02:12:43.568Z,2.30
2023-03-06T02:15:17.100Z,2.20
2023-03-06T02:17:46.060Z,2.30
2023-03-06T02:20:57.026Z,2.20
2023-03-06T02:23:56.134Z,2.20
2023-03-06T02:26:24.746Z,2.20
2023-03-06T02:28:51.474Z,2.10
2023-03-06T02:31:25.685Z,2.10
2023-03-06T02:34:28.751Z,2.10
2023-03-06T02:36:59.663Z,2.10
2023-03-06T02:39:29.949Z,2.10
2023-03-06T02:41:56.801Z,2.10
2023-03-06T02:44:25.834Z,2.20
2023-03-06T02:46:53.127Z,2.20
2023-03-06T02:49:19.784Z,2.20
2023-03-06T02:51:47.698Z,2.30
2023-03-06T02:54:14.515Z,2.30
2023-03-06T02:56:42.782Z,2.30
2023-03-06T02:59:09.498Z,2.30
2023-03-06T03:01:36.980Z,2.30
2023-03-06T03:04:03.799Z,2.30
2023-03-06T03:06:31.405Z,2.40
2023-03-06T03:08:58.880Z,2.40
2023-03-06T03:11:26.193Z,2.40
2023-03-06T03:13:53.264Z,2.40
2023-03-06T03:16:24.121Z,2.40
2023-03-06T03:18:51.171Z,2.40
2023-03-06T03:21:21.253Z,2.40
2023-03-06T03:23:48.840Z,2.40
2023-03-06T03:26:19.072Z,2.40
2023-03-06T03:29:05.189Z,2.40
2023-03-06T03:31:32.844Z,2.40
2023-03-06T03:34:01.108Z,2.50
2023-03-06T03:36:32.075Z,2.40
2023-03-06T03:39:00.130Z,2.40
2023-03-06T03:41:27.707Z,2.40
2023-03-06T03:43:54.661Z,2.40
2023-03-06T03:46:22.781Z,2.40
2023-03-06T03:48:52.106Z,2.50
2023-03-06T03:51:19.853Z,2.40
2023-03-06T03:53:51.050Z,2.40
2023-03-06T03:56:21.799Z,2.40
2023-03-06T03:58:56.159Z,2.40
2023-03-06T04:01:25.185Z,2.40
2023-03-06T04:03:52.050Z,2.50
2023-03-06T04:06:19.972Z,2.50
2023-03-06T04:08:47.699Z,2.40
2023-03-06T04:11:15.417Z,2.40
2023-03-06T04:13:42.148Z,2.50
2023-03-06T04:16:09.852Z,2.50
2023-03-06T04:18:38.400Z,2.50
2023-03-06T04:21:06.939Z,2.50
2023-03-06T04:23:33.746Z,2.50
2023-03-06T04:26:01.179Z,2.40
2023-03-06T04:28:28.622Z,2.40
2023-03-06T04:30:57.004Z,2.40
2023-03-06T04:33:24.204Z,2.40
2023-03-06T04:35:51.541Z,2.40
2023-03-06T04:38:23.493Z,2.30
2023-03-06T04:40:51.045Z,2.30
2023-03-06T04:43:18.046Z,2.20
2023-03-06T04:45:45.107Z,2.10
2023-03-06T04:48:17.368Z,2.10
2023-03-06T04:50:44.989Z,2.00
2023-03-06T04:53:14.384Z,2.00
2023-03-06T04:55:41.773Z,2.00
2023-03-06T04:58:09.768Z,2.00
2023-03-06T05:00:37.072Z,2.00
2023-03-06T05:03:03.747Z,2.00
2023-03-06T05:05:31.123Z,2.10
2023-03-06T05:07:57.785Z,2.10
2023-03-06T05:10:24.960Z,2.10
2023-03-06T05:12:51.635Z,2.10
2023-03-06T05:15:19.010Z,2.10
2023-03-06T05:17:47.344Z,2.20
2023-03-06T05:20:15.747Z,2.10
2023-03-06T05:22:42.694Z,2.10
2023-03-06T05:25:10.921Z,2.10
2023-03-06T05:27:38.135Z,2.10
2023-03-06T05:30:06.307Z,2.10
2023-03-06T05:32:35.458Z,2.20
2023-03-06T05:35:03.982Z,2.20
2023-03-06T05:37:31.126Z,2.20
2023-03-06T05:39:58.569Z,2.20
2023-03-06T05:42:27.605Z,2.20
2023-03-06T05:44:55.830Z,2.10
2023-03-06T05:47:22.510Z,2.20
2023-03-06T05:49:50.015Z,2.20
2023-03-06T05:52:17.428Z,2.10
2023-03-06T05:54:44.818Z,2.20
2023-03-06T05:57:11.532Z,2.10
2023-03-06T05:59:38.805Z,2.20
2023-03-06T06:02:05.758Z,2.20
2023-03-06T06:04:33.080Z,2.10
2023-03-06T06:07:00.776Z,2.20
2023-03-06T06:09:28.841Z,2.20
2023-03-06T06:11:59.593Z,2.20
2023-03-06T06:14:27.815Z,2.20
2023-03-06T06:16:54.827Z,2.20
2023-03-06T06:19:23.240Z,2.20
2023-03-06T06:21:52.205Z,2.20
2023-03-06T06:24:21.740Z,2.20
2023-03-06T06:26:53.008Z,2.20
2023-03-06T06:29:21.078Z,2.20
2023-03-06T06:31:48.147Z,2.30
2023-03-06T06:34:15.537Z,2.20
2023-03-06T06:36:42.242Z,2.20
2023-03-06T06:39:11.262Z,2.30
2023-03-06T06:41:56.926Z,2.20
2023-03-06T06:44:25.150Z,2.30
2023-03-06T06:49:40.250Z,2.30
2023-03-06T06:52:07.511Z,2.30
2023-03-06T06:54:34.984Z,2.40
2023-03-06T06:57:02.082Z,2.40
2023-03-06T06:59:29.335Z,2.40
2023-03-06T07:01:55.968Z,2.40
2023-03-06T07:04:23.374Z,2.40
2023-03-06T07:06:50.023Z,2.50
2023-03-06T07:09:17.287Z,2.50
2023-03-06T07:11:43.979Z,2.50
2023-03-06T07:14:11.192Z,2.50
2023-03-06T07:16:37.785Z,2.50
2023-03-06T07:19:05.252Z,2.50
2023-03-06T07:21:31.903Z,2.50
2023-03-06T07:24:01.234Z,2.60
2023-03-06T07:26:28.378Z,2.60
2023-03-06T07:28:55.755Z,2.60
2023-03-06T07:31:25.726Z,2.60
2023-03-06T07:33:54.272Z,2.60
2023-03-06T07:36:23.219Z,2.70
2023-03-06T07:38:50.636Z,2.70
2023-03-06T07:41:20.399Z,2.80
2023-03-06T07:43:49.665Z,2.90
2023-03-06T07:46:16.962Z,2.90
2023-03-06T07:48:44.866Z,3.00
2023-03-06T07:51:20.288Z,3.10
2023-03-06T07:53:48.876Z,3.20
2023-03-06T07:56:15.959Z,3.30
2023-03-06T07:58:45.191Z,3.40
2023-03-06T08:01:15.807Z,3.40
2023-03-06T08:03:43.384Z,3.50
2023-03-06T08:06:13.090Z,3.50
2023-03-06T08:08:42.716Z,3.60
2023-03-06T08:11:12.349Z,3.60
2023-03-06T08:13:40.248Z,3.70
2023-03-06T08:16:07.296Z,3.70
2023-03-06T08:18:35.145Z,3.70
2023-03-06T08:21:09.660Z,3.70
2023-03-06T08:23:37.465Z,3.70
2023-03-06T08:26:08.629Z,3.70
2023-03-06T08:28:35.833Z,3.70
2023-03-06T08:31:29.315Z,3.60
2023-03-06T08:33:58.242Z,3.70
2023-03-06T08:36:25.138Z,3.60
2023-03-06T08:38:52.533Z,3.70
2023-03-06T08:41:20.381Z,3.70
2023-03-06T08:43:48.336Z,3.60
2023-03-06T08:46:15.565Z,3.60
2023-03-06T08:48:42.824Z,3.60
2023-03-06T08:51:10.464Z,3.60
2023-03-06T08:53:43.635Z,3.60
2023-03-06T08:56:28.426Z,3.60
2023-03-06T08:58:57.962Z,3.60
2023-03-06T09:01:30.428Z,3.50
2023-03-06T09:03:59.388Z,3.60
2023-03-06T09:06:30.079Z,3.50
2023-03-06T09:08:56.952Z,3.50
2023-03-06T09:11:25.690Z,3.50
2023-03-06T09:13:53.719Z,3.70
2023-03-06T09:16:20.784Z,3.80
2023-03-06T09:18:50.212Z,4.10
2023-03-06T09:21:16.873Z,4.20
2023-03-06T09:23:44.093Z,4.30
2023-03-06T09:26:12.416Z,4.40
2023-03-06T09:28:40.402Z,4.50
2023-03-06T09:31:10.239Z,4.70
2023-03-06T09:33:37.106Z,4.80
2023-03-06T09:36:06.060Z,4.90
2023-03-06T09:38:32.839Z,4.90
2023-03-06T09:41:02.926Z,4.90
2023-03-06T09:43:40.301Z,4.90
2023-03-06T09:46:13.826Z,4.90
2023-03-06T09:49:13.532Z,4.90
2023-03-06T09:52:23.219Z,4.90
2023-03-06T09:55:10.126Z,4.90
2023-03-06T09:58:17.179Z,4.90
2023-03-06T10:01:09.707Z,5.00
2023-03-06T10:03:48.676Z,5.10
2023-03-06T10:06:22.249Z,5.00
2023-03-06T10:08:52.853Z,4.90
2023-03-06T10:11:27.786Z,4.90
2023-03-06T10:14:12.408Z,5.00
2023-03-06T10:16:39.844Z,5.10
2023-03-06T10:19:17.163Z,5.30
2023-03-06T10:22:02.903Z,5.40
2023-03-06T10:24:58.628Z,5.40
2023-03-06T10:27:44.042Z,5.30
2023-03-06T10:30:24.163Z,5.10
2023-03-06T10:32:59.184Z,5.00
2023-03-06T10:35:32.644Z,4.80
2023-03-06T10:38:21.722Z,4.70
2023-03-06T10:41:11.611Z,4.60
2023-03-06T10:43:41.469Z,4.60
2023-03-06T10:46:10.593Z,4.70
2023-03-06T10:48:41.707Z,4.90
2023-03-06T10:51:22.191Z,4.90
2023-03-06T10:54:01.000Z,5.00
2023-03-06T10:56:36.782Z,5.10
2023-03-06T10:59:07.620Z,5.00
2023-03-06T11:01:35.251Z,5.10
2023-03-06T11:04:14.882Z,5.20
2023-03-06T11:06:43.045Z,5.30
2023-03-06T11:09:20.347Z,5.50
2023-03-06T11:11:47.824Z,5.50
2023-03-06T11:14:22.714Z,5.50
2023-03-06T11:16:55.315Z,5.70
2023-03-06T11:19:27.367Z,5.90
2023-03-06T11:22:06.777Z,6.00
2023-03-06T11:24:39.257Z,6.00
2023-03-06T11:27:31.082Z,5.90
2023-03-06T11:29:59.784Z,5.90
2023-03-06T11:32:33.833Z,5.90
2023-03-06T11:35:10.052Z,5.80
2023-03-06T11:37:54.111Z,5.80
2023-03-06T11:40:24.743Z,5.60
2023-03-06T11:43:26.907Z,5.50
2023-03-06T11:46:17.492Z,5.50
2023-03-06T11:48:51.844Z,5.50
2023-03-06T11:51:26.782Z,5.60
2023-03-06T11:53:55.160Z,5.90
2023-03-06T11:56:36.136Z,6.10
2023-03-06T11:59:30.963Z,6.30
2023-03-06T12:02:09.750Z,6.60
2023-03-06T12:04:53.079Z,6.70
2023-03-06T12:07:26.497Z,6.80
2023-03-06T12:10:23.094Z,6.70
2023-03-06T12:12:50.580Z,6.50
2023-03-06T12:15:32.577Z,6.40
2023-03-06T12:18:24.515Z,6.30
2023-03-06T12:21:07.024Z,6.20
2023-03-06T12:23:57.679Z,6.40
2023-03-06T12:26:43.004Z,6.50
2023-03-06T12:29:28.672Z,6.50
2023-03-06T12:32:35.082Z,6.40
2023-03-06T12:35:32.649Z,6.40
2023-03-06T12:38:19.922Z,6.30
2023-03-06T12:41:17.825Z,6.30
2023-03-06T12:43:50.942Z,6.30
2023-03-06T12:46:25.676Z,6.50
2023-03-06T12:48:58.462Z,6.80
2023-03-06T12:51:25.183Z,7.10
2023-03-06T12:53:53.239Z,7.40
2023-03-06T12:56:22.062Z,7.50
2023-03-06T12:59:02.752Z,7.60
2023-03-06T13:01:55.401Z,7.60
2023-03-06T13:04:29.510Z,7.60
2023-03-06T13:07:34.798Z,7.60
2023-03-06T13:10:23.158Z,7.40
2023-03-06T13:13:01.802Z,7.40
2023-03-06T13:15:42.988Z,7.40
2023-03-06T13:18:22.308Z,7.40
2023-03-06T13:20:51.117Z,7.30
2023-03-06T13:23:30.626Z,7.10
2023-03-06T13:25:59.828Z,7.20
2023-03-06T13:28:40.463Z,7.30
2023-03-06T13:31:18.237Z,7.50
2023-03-06T13:34:00.941Z,7.70
2023-03-06T13:36:38.319Z,7.80
2023-03-06T13:39:13.336Z,7.90
2023-03-06T13:41:58.613Z,7.90
2023-03-06T13:44:25.867Z,8.00
2023-03-06T13:47:08.288Z,8.00
2023-03-06T13:49:35.851Z,8.00
2023-03-06T13:52:21.084Z,8.00
2023-03-06T13:55:11.079Z,8.00
2023-03-06T13:57:56.797Z,7.80
2023-03-06T14:00:52.847Z,7.70
2023-03-06T14:03:44.594Z,7.80
2023-03-06T14:06:48.379Z,7.80
2023-03-06T14:09:29.748Z,8.00
2023-03-06T14:12:18.503Z,8.10
2023-03-06T14:14:52.965Z,7.90
2023-03-06T14:17:32.100Z,7.90
2023-03-06T14:20:05.921Z,7.90
2023-03-06T14:22:32.579Z,7.80
2023-03-06T14:25:29.996Z,7.70
2023-03-06T14:28:05.650Z,7.60
2023-03-06T14:30:49.742Z,7.60
2023-03-06T14:33:27.297Z,7.70
2023-03-06T14:35:58.152Z,7.60
2023-03-06T14:38:26.293Z,7.50
2023-03-06T14:40:53.328Z,7.50
2023-03-06T14:43:23.891Z,7.60
2023-03-06T14:45:56.513Z,7.60
2023-03-06T14:48:27.179Z,7.60
2023-03-06T14:50:57.824Z,7.40
2023-03-06T14:53:30.684Z,7.20
2023-03-06T14:56:00.952Z,7.10
2023-03-06T14:58:33.518Z,7.00
2023-03-06T15:01:05.571Z,7.00
2023-03-06T15:03:36.331Z,7.10
2023-03-06T15:06:04.135Z,7.10
2023-03-06T15:08:34.347Z,7.10
2023-03-06T15:11:04.008Z,7.10
2023-03-06T15:13:32.726Z,7.00
2023-03-06T15:16:06.866Z,6.90
2023-03-06T15:18:40.493Z,6.90
2023-03-06T15:21:13.332Z,6.90
2023-03-06T15:23:43.888Z,6.90
2023-03-06T15:26:29.364Z,6.90
2023-03-06T15:29:09.644Z,6.90
2023-03-06T15:31:42.042Z,6.90
2023-03-06T15:34:12.083Z,6.80
2023-03-06T15:36:42.653Z,6.80
2023-03-06T15:39:36.622Z,6.70
2023-03-06T15:42:24.973Z,6.60
2023-03-06T15:44:55.071Z,6.50
2023-03-06T15:47:22.489Z,6.30
2023-03-06T15:49:52.175Z,6.10
2023-03-06T15:52:20.690Z,5.80
2023-03-06T15:54:49.305Z,5.60
2023-03-06T15:57:29.474Z,5.50
2023-03-06T15:59:56.664Z,5.30
2023-03-06T16:02:24.455Z,5.30
2023-03-06T16:04:52.612Z,5.30
2023-03-06T16:07:20.424Z,5.30
2023-03-06T16:09:47.680Z,5.30
2023-03-06T16:12:17.366Z,5.30
2023-03-06T16:14:45.938Z,5.30
2023-03-06T16:17:12.865Z,5.30
2023-03-06T16:19:40.556Z,5.30
2023-03-06T16:22:08.164Z,5.20
2023-03-06T16:24:35.184Z,5.20
2023-03-06T16:27:02.592Z,5.20
2023-03-06T16:29:30.775Z,5.20
2023-03-06T16:31:58.757Z,5.20
2023-03-06T16:34:26.159Z,5.20
2023-03-06T16:36:52.889Z,5.10
2023-03-06T16:39:22.587Z,5.10
2023-03-06T16:41:50.182Z,5.10
2023-03-06T16:44:17.679Z,5.10
2023-03-06T16:46:46.872Z,5.10
2023-03-06T16:49:19.962Z,5.00
2023-03-06T16:51:46.852Z,5.00
2023-03-06T16:54:14.497Z,5.00
2023-03-06T16:56:41.377Z,4.90
2023-03-06T16:59:08.825Z,4.90
2023-03-06T17:01:35.491Z,4.90
2023-03-06T17:04:03.754Z,4.90
2023-03-06T17:06:31.348Z,4.90
2023-03-06T17:08:59.776Z,4.90
2023-03-06T17:11:26.978Z,4.90
2023-03-06T17:13:55.486Z,4.80
2023-03-06T17:16:22.577Z,4.80
2023-03-06T17:18:50.814Z,4.80
2023-03-06T17:21:17.507Z,4.80
2023-03-06T17:23:44.843Z,4.80
2023-03-06T17:26:15.029Z,4.80
2023-03-06T17:28:42.642Z,4.80
2023-03-06T17:31:18.785Z,4.70
2023-03-06T17:33:46.228Z,4.60
2023-03-06T17:36:14.447Z,4.60
2023-03-06T17:38:41.930Z,4.60
2023-03-06T17:41:10.524Z,4.50
2023-03-06T17:43:37.880Z,4.50
2023-03-06T17:46:10.368Z,4.50
2023-03-06T17:48:37.695Z,4.50
2023-03-06T17:51:06.181Z,4.40
2023-03-06T17:53:33.288Z,4.40
2023-03-06T17:56:02.556Z,4.40
2023-03-06T17:58:29.135Z,4.40
2023-03-06T18:00:56.451Z,4.40
2023-03-06T18:03:23.112Z,4.40
2023-03-06T18:06:04.693Z,4.30
2023-03-06T18:08:32.106Z,4.30
2023-03-06T18:11:01.136Z,4.30
2023-03-06T18:13:27.768Z,4.40
2023-03-06T18:15:55.163Z,4.40
2023-03-06T18:18:21.863Z,4.40
2023-03-06T18:20:49.339Z,4.40
2023-03-06T18:23:16.171Z,4.40
2023-03-06T18:25:43.867Z,4.50
2023-03-06T18:28:10.703Z,4.50
2023-03-06T18:30:41.319Z,4.50
2023-03-06T18:33:10.048Z,4.60
2023-03-06T18:35:37.241Z,4.50
2023-03-06T18:38:04.348Z,4.50
2023-03-06T18:43:21.677Z,4.50
2023-03-06T18:45:58.122Z,4.60
2023-03-06T18:48:25.664Z,4.60
2023-03-06T18:50:52.281Z,4.60
2023-03-06T18:53:19.976Z,4.60
2023-03-06T18:55:52.200Z,4.60
2023-03-06T18:58:19.234Z,4.60
2023-03-06T19:00:46.524Z,4.60
2023-03-06T19:03:14.642Z,4.60
2023-03-06T19:05:43.693Z,4.60
2023-03-06T19:08:10.950Z,4.60
2023-03-06T19:10:41.107Z,4.60
2023-03-06T19:13:09.665Z,4.60
2023-03-06T19:15:48.244Z,4.60
2023-03-06T19:18:17.888Z,4.60
2023-03-06T19:20:45.605Z,4.60
2023-03-06T19:23:12.430Z,4.50
2023-03-06T19:25:40.080Z,4.50
2023-03-06T19:28:06.752Z,4.50
2023-03-06T19:30:34.024Z,4.40
2023-03-06T19:33:00.592Z,4.40
2023-03-06T19:35:27.997Z,4.40
2023-03-06T19:37:54.676Z,4.40
2023-03-06T19:49:21.955Z,4.30
2023-03-06T19:51:58.187Z,4.30
2023-03-06T19:54:25.688Z,4.30
2023-03-06T19:56:53.311Z,4.30
2023-03-06T20:02:27.589Z,4.40
2023-03-06T20:04:54.745Z,4.40
2023-03-06T20:07:21.576Z,4.40
2023-03-06T20:09:49.045Z,4.40
2023-03-06T20:12:16.183Z,4.30
2023-03-06T20:14:43.563Z,4.30
2023-03-06T20:17:10.187Z,4.30
2023-03-06T20:19:37.506Z,4.20
2023-03-06T20:22:04.646Z,4.20
2023-03-06T20:24:31.932Z,4.20
2023-03-06T20:26:59.334Z,4.30
2023-03-06T20:29:28.195Z,4.20
2023-03-06T20:31:57.237Z,4.30
2023-03-06T20:34:25.558Z,4.30
2023-03-06T20:36:52.576Z,4.30
2023-03-06T20:39:24.196Z,4.30
2023-03-06T20:41:52.026Z,4.30
2023-03-06T20:44:20.210Z,4.30
2023-03-06T20:46:46.980Z,4.30
2023-03-06T20:49:14.920Z,4.30
2023-03-06T20:51:42.306Z,4.30
2023-03-06T20:54:13.144Z,4.30
2023-03-06T20:56:41.048Z,4.20
2023-03-06T20:59:11.721Z,4.20
2023-03-06T21:01:41.555Z,4.20
2023-03-06T21:04:10.741Z,4.20
2023-03-06T21:06:37.898Z,4.20
2023-03-06T21:09:07.038Z,4.20
2023-03-06T21:11:34.756Z,4.10
2023-03-06T21:14:02.501Z,4.10
2023-03-06T21:16:30.591Z,4.10
2023-03-06T21:18:59.100Z,4.00
2023-03-06T21:21:30.483Z,4.00
2023-03-06T21:23:58.211Z,3.80
2023-03-06T21:26:28.154Z,3.70
2023-03-06T21:28:56.815Z,3.70
2023-03-06T21:31:24.347Z,3.70
2023-03-06T21:33:51.634Z,3.60
2023-03-06T21:36:21.614Z,3.50
2023-03-06T21:38:50.300Z,3.50
2023-03-06T21:41:28.913Z,3.40
2023-03-06T21:43:57.173Z,3.40
2023-03-06T21:46:25.847Z,3.40
2023-03-06T21:48:52.955Z,3.40
2023-03-06T21:51:21.067Z,3.40
2023-03-06T21:53:48.334Z,3.40
2023-03-06T21:56:17.614Z,3.30
2023-03-06T21:58:45.339Z,3.40
2023-03-06T22:01:23.060Z,3.30
2023-03-06T22:03:50.007Z,3.40
2023-03-06T22:06:20.240Z,3.40
2023-03-06T22:08:47.293Z,3.40
2023-03-06T22:11:22.104Z,3.40
2023-03-06T22:13:49.116Z,3.40
2023-03-06T22:16:17.887Z,3.40
2023-03-06T22:18:46.368Z,3.50
2023-03-06T22:21:16.429Z,3.50
2023-03-06T22:23:43.148Z,3.50
2023-03-06T22:26:13.031Z,3.50
2023-03-06T22:28:40.782Z,3.50
2023-03-06T22:31:20.002Z,3.50
2023-03-06T22:34:01.857Z,3.60
2023-03-06T22:36:33.691Z,3.60
2023-03-06T22:39:02.109Z,3.60
2023-03-06T22:41:29.529Z,3.60
2023-03-06T22:44:02.032Z,3.70
2023-03-06T22:46:30.272Z,3.70
2023-03-06T22:48:58.016Z,3.70
2023-03-06T22:51:26.108Z,3.70
2023-03-06T22:53:52.963Z,3.70
2023-03-06T22:56:21.956Z,3.80
2023-03-06T22:58:48.662Z,3.80
2023-03-06T23:01:18.653Z,3.80
2023-03-06T23:03:50.397Z,3.80
2023-03-06T23:06:20.796Z,3.80
2023-03-06T23:08:53.343Z,3.80
2023-03-06T23:11:21.403Z,3.80
2023-03-06T23:14:07.105Z,3.80
2023-03-06T23:16:53.284Z,3.90
2023-03-06T23:19:38.712Z,3.90
2023-03-06T23:22:24.507Z,3.90
2023-03-06T23:25:09.843Z,3.90
2023-03-06T23:27:37.203Z,3.80
2023-03-06T23:30:12.066Z,3.90
2023-03-06T23:32:39.787Z,3.90
2023-03-06T23:35:07.669Z,3.90
2023-03-06T23:37:35.043Z,3.90
2023-03-06T23:40:02.476Z,3.90
2023-03-06T23:42:30.172Z,3.90
2023-03-06T23:44:57.024Z,3.90
2023-03-06T23:47:24.336Z,3.90
2023-03-06T23:49:51.017Z,3.90
2023-03-06T23:52:18.927Z,3.90
2023-03-06T23:54:48.846Z,3.90
2023-03-06T23:57:16.481Z,3.90
2023-03-06T23:59:43.925Z,3.90
